Time;durP1;ratioP1;P1;durP2;ratioP2;P2;SDS_P1;SDS_P2;PMS_P1;PMS_P2;Temp;Humidity;BMP_temperature;BMP_pressure;BME280_temperature;BME280_humidity;BME280_pressure;Samples;Min_cycle;Max_cycle;Signal;HPM_P1;HPM_P2
2022/03/30 00:00:12;;;;;;;21.65;9.88;;;6.40;99.90;;;;;;5029483;28;20050;-79
2022/03/30 00:02:37;;;;;;;24.95;10.60;;;6.40;99.90;;;;;;5029262;28;20037;-79
2022/03/30 00:05:04;;;;;;;25.83;11.98;;;6.50;99.90;;;;;;5012969;28;20465;-79
2022/03/30 00:07:31;;;;;;;25.83;10.88;;;6.40;99.90;;;;;;5028959;28;20037;-79
2022/03/30 00:10:02;;;;;;;19.38;10.30;;;6.40;99.90;;;;;;5012584;28;20079;-79
2022/03/30 00:12:28;;;;;;;19.40;10.07;;;6.30;99.90;;;;;;5029728;28;20048;-79
2022/03/30 00:14:54;;;;;;;21.58;10.52;;;6.30;99.90;;;;;;5029529;28;20037;-79
2022/03/30 00:17:19;;;;;;;23.88;11.05;;;6.20;99.90;;;;;;5012930;28;20052;-79
2022/03/30 00:19:45;;;;;;;22.50;11.50;;;6.20;99.90;;;;;;5029385;28;20038;-79
2022/03/30 00:22:11;;;;;;;19.25;10.23;;;6.20;99.90;;;;;;5031820;28;20494;-79
2022/03/30 00:24:38;;;;;;;22.55;10.70;;;6.20;99.90;;;;;;5032912;28;20128;-79
2022/03/30 00:27:06;;;;;;;20.67;11.02;;;6.10;99.90;;;;;;5032427;28;20042;-79
2022/03/30 00:29:32;;;;;;;21.88;10.48;;;6.10;99.90;;;;;;5032407;28;20076;-79
2022/03/30 00:31:58;;;;;;;19.95;9.80;;;6.00;99.90;;;;;;5015135;28;20120;-79
2022/03/30 00:34:23;;;;;;;23.23;10.82;;;6.00;99.90;;;;;;5033166;28;20459;-79
2022/03/30 00:36:49;;;;;;;25.60;10.82;;;5.90;99.90;;;;;;5033048;28;20574;-79
2022/03/30 00:39:16;;;;;;;21.42;10.70;;;5.90;99.90;;;;;;5032736;28;20553;-79
2022/03/30 00:41:42;;;;;;;25.20;10.63;;;5.80;99.90;;;;;;5032088;28;20048;-79
2022/03/30 00:44:13;;;;;;;20.33;10.15;;;5.80;99.90;;;;;;5032385;28;20037;-79
2022/03/30 00:46:41;;;;;;;24.30;11.45;;;5.80;99.90;;;;;;5032686;28;20041;-79
2022/03/30 00:49:07;;;;;;;23.83;10.40;;;5.70;99.90;;;;;;5032256;28;20042;-79
2022/03/30 00:51:33;;;;;;;20.58;10.82;;;5.70;99.90;;;;;;5032264;28;20048;-79
2022/03/30 00:53:58;;;;;;;26.08;11.88;;;5.60;99.90;;;;;;5032435;28;20090;-79
2022/03/30 00:56:27;;;;;;;21.70;10.95;;;5.60;99.90;;;;;;5032664;28;20414;-79
2022/03/30 00:58:52;;;;;;;22.55;11.60;;;5.60;99.90;;;;;;5015900;28;20071;-79
2022/03/30 01:01:20;;;;;;;22.02;11.35;;;5.60;99.90;;;;;;5032063;28;20490;-79
2022/03/30 01:03:46;;;;;;;23.00;11.10;;;5.60;99.90;;;;;;5032085;28;20038;-79
2022/03/30 01:06:11;;;;;;;19.50;11.75;;;5.60;99.90;;;;;;5032540;28;20048;-79
2022/03/30 01:08:37;;;;;;;21.35;11.65;;;5.60;99.90;;;;;;5031695;28;20414;-79
2022/03/30 01:11:03;;;;;;;26.23;12.35;;;5.60;99.90;;;;;;5031698;28;20042;-79
2022/03/30 01:13:29;;;;;;;23.98;12.32;;;5.60;99.90;;;;;;5031953;28;20041;-79
2022/03/30 01:15:54;;;;;;;25.48;12.73;;;5.60;99.90;;;;;;5032117;28;20045;-79
2022/03/30 01:18:21;;;;;;;25.63;12.63;;;5.60;99.90;;;;;;5032123;28;20045;-79
2022/03/30 01:20:50;;;;;;;27.52;13.52;;;5.60;99.90;;;;;;5031638;28;20084;-79
2022/03/30 01:23:19;;;;;;;28.38;14.15;;;5.50;99.90;;;;;;5014413;28;20441;-79
2022/03/30 01:25:44;;;;;;;23.17;12.35;;;5.50;99.90;;;;;;5031818;28;20041;-79
2022/03/30 01:28:11;;;;;;;23.05;12.02;;;5.50;99.90;;;;;;5014684;28;20045;-79
2022/03/30 01:33:21;;;;;;;28.25;13.13;;;5.50;99.90;;;;;;5030601;28;20048;-79
2022/03/30 01:35:47;;;;;;;26.42;12.77;;;5.50;99.90;;;;;;5031836;28;20046;-79
2022/03/30 01:38:12;;;;;;;29.48;14.25;;;5.50;99.90;;;;;;5015333;28;20120;-79
2022/03/30 01:40:39;;;;;;;27.90;13.27;;;5.50;99.90;;;;;;5031302;28;20513;-79
2022/03/30 01:43:04;;;;;;;28.38;14.00;;;5.50;99.90;;;;;;5031548;28;20041;-79
2022/03/30 01:45:30;;;;;;;26.27;12.85;;;5.60;99.90;;;;;;5031576;28;20550;-79
2022/03/30 01:47:59;;;;;;;29.27;13.57;;;5.50;99.90;;;;;;5030958;28;20495;-79
2022/03/30 01:50:26;;;;;;;25.20;12.35;;;5.50;99.90;;;;;;5014256;28;20033;-79
2022/03/30 01:52:52;;;;;;;25.77;12.57;;;5.50;99.90;;;;;;5031320;28;20048;-79
2022/03/30 01:55:18;;;;;;;30.00;13.20;;;5.50;99.90;;;;;;5031151;28;20072;-79
2022/03/30 01:57:45;;;;;;;22.08;12.65;;;5.50;99.90;;;;;;5031266;28;20044;-79
2022/03/30 02:00:13;;;;;;;22.52;12.80;;;5.50;99.90;;;;;;5030659;28;20053;-78
2022/03/30 02:02:39;;;;;;;24.55;11.65;;;5.50;99.90;;;;;;5030963;28;20502;-79
2022/03/30 02:05:08;;;;;;;20.90;13.20;;;5.40;99.90;;;;;;5030748;28;20068;-79
2022/03/30 02:07:35;;;;;;;26.65;14.23;;;5.40;99.90;;;;;;5030584;28;20049;-78
2022/03/30 02:10:00;;;;;;;28.95;13.93;;;5.40;99.90;;;;;;5014032;28;20034;-79
2022/03/30 02:12:26;;;;;;;23.55;13.05;;;5.40;99.90;;;;;;5030956;28;20048;-79
2022/03/30 02:14:53;;;;;;;22.92;12.88;;;5.30;99.90;;;;;;5031100;28;20057;-79
2022/03/30 02:17:19;;;;;;;27.33;12.90;;;5.30;99.90;;;;;;5030791;28;20095;-79
2022/03/30 02:19:46;;;;;;;27.95;12.55;;;5.30;99.90;;;;;;5030727;28;20052;-78
2022/03/30 02:22:12;;;;;;;23.20;11.35;;;5.30;99.90;;;;;;5030498;28;20083;-78
2022/03/30 02:24:38;;;;;;;21.60;11.82;;;5.20;99.90;;;;;;5030596;28;20041;-79
2022/03/30 02:27:03;;;;;;;24.98;12.65;;;5.10;99.90;;;;;;5030589;28;20397;-79
2022/03/30 02:29:29;;;;;;;24.08;11.95;;;5.10;99.90;;;;;;5030177;28;20045;-79
2022/03/30 02:31:55;;;;;;;22.30;10.82;;;5.10;99.90;;;;;;5029408;28;20033;-79
2022/03/30 02:34:21;;;;;;;29.20;13.93;;;5.10;99.90;;;;;;5030703;28;20082;-79
2022/03/30 02:36:48;;;;;;;25.10;13.90;;;5.10;99.90;;;;;;5014048;28;20045;-79
2022/03/30 02:39:14;;;;;;;22.05;13.60;;;5.10;99.90;;;;;;5030534;28;20041;-79
2022/03/30 02:41:39;;;;;;;21.00;11.82;;;5.10;99.90;;;;;;5030536;28;20045;-79
2022/03/30 02:44:05;;;;;;;25.42;12.73;;;5.10;99.90;;;;;;5029795;28;20041;-79
2022/03/30 02:46:31;;;;;;;27.67;13.15;;;5.10;99.90;;;;;;5030353;28;20064;-79
2022/03/30 02:48:56;;;;;;;26.10;11.93;;;5.10;99.90;;;;;;5030074;28;20033;-79
2022/03/30 02:51:22;;;;;;;25.30;13.23;;;5.10;99.90;;;;;;5029579;28;20091;-79
2022/03/30 02:53:48;;;;;;;26.65;12.98;;;5.20;99.90;;;;;;5030788;28;20502;-79
2022/03/30 02:56:13;;;;;;;25.23;13.35;;;5.20;99.90;;;;;;5013843;28;20041;-79
2022/03/30 02:58:39;;;;;;;27.73;14.63;;;5.20;99.90;;;;;;5014294;28;20406;-79
2022/03/30 03:01:05;;;;;;;26.15;13.57;;;5.30;99.90;;;;;;5029936;28;20518;-79
2022/03/30 03:03:31;;;;;;;26.58;15.07;;;5.30;99.90;;;;;;5029925;28;20130;-79
2022/03/30 03:05:57;;;;;;;25.45;13.55;;;5.30;99.90;;;;;;5029903;28;20059;-79
2022/03/30 03:08:22;;;;;;;23.83;13.45;;;5.30;99.90;;;;;;5013321;28;20554;-79
2022/03/30 03:10:50;;;;;;;28.30;13.77;;;5.40;99.90;;;;;;5029709;28;20499;-79
2022/03/30 03:13:16;;;;;;;30.73;14.93;;;5.40;99.90;;;;;;5030041;28;20037;-79
2022/03/30 03:15:44;;;;;;;32.28;16.13;;;5.40;99.90;;;;;;5030123;28;20533;-78
2022/03/30 03:18:09;;;;;;;26.67;13.90;;;5.40;99.90;;;;;;5030017;28;20080;-79
2022/03/30 03:20:35;;;;;;;26.67;14.30;;;5.40;99.90;;;;;;5029594;28;20068;-79
2022/03/30 03:23:02;;;;;;;27.33;15.15;;;5.40;99.90;;;;;;5029498;28;20048;-78
2022/03/30 03:25:31;;;;;;;26.17;14.68;;;5.40;99.90;;;;;;5031689;28;20120;-79
2022/03/30 03:27:57;;;;;;;28.23;14.88;;;5.40;99.90;;;;;;5009857;28;20038;-79
2022/03/30 03:30:23;;;;;;;29.42;15.75;;;5.40;99.90;;;;;;5010064;28;20176;-78
2022/03/30 03:32:49;;;;;;;27.45;15.13;;;5.40;99.90;;;;;;5031313;28;20103;-79
2022/03/30 03:35:14;;;;;;;23.95;15.07;;;5.40;99.90;;;;;;5013631;28;20033;-79
2022/03/30 03:37:41;;;;;;;25.80;13.27;;;5.40;99.90;;;;;;5030273;28;20045;-79
2022/03/30 03:40:08;;;;;;;28.38;13.50;;;5.40;99.90;;;;;;5029641;28;20043;-79
2022/03/30 03:42:34;;;;;;;24.45;13.98;;;5.50;99.90;;;;;;5028235;28;20033;-79
2022/03/30 03:45:01;;;;;;;26.63;13.95;;;5.50;99.90;;;;;;5029097;28;20052;-79
2022/03/30 03:47:27;;;;;;;28.65;14.65;;;5.50;99.90;;;;;;5029770;28;20495;-79
2022/03/30 03:49:52;;;;;;;27.52;14.00;;;5.50;99.90;;;;;;5012399;28;20041;-79
2022/03/30 03:52:18;;;;;;;25.45;14.30;;;5.50;99.90;;;;;;5029483;28;20041;-79
2022/03/30 03:54:44;;;;;;;25.95;13.70;;;5.60;99.90;;;;;;5030050;28;20103;-79
2022/03/30 03:57:09;;;;;;;24.23;13.48;;;5.60;99.90;;;;;;5032407;28;20526;-79
2022/03/30 03:59:35;;;;;;;24.95;14.38;;;5.60;99.90;;;;;;5016857;28;20041;-79
2022/03/30 04:02:04;;;;;;;24.65;13.90;;;5.70;99.90;;;;;;5033284;28;20088;-80
2022/03/30 04:04:30;;;;;;;28.90;12.90;;;5.70;99.90;;;;;;5033030;28;20041;-80
2022/03/30 04:06:55;;;;;;;26.80;14.65;;;5.70;99.90;;;;;;5033128;28;20042;-80
2022/03/30 04:09:21;;;;;;;26.83;14.30;;;5.70;99.90;;;;;;5032767;28;20048;-80
2022/03/30 04:11:46;;;;;;;29.20;14.70;;;5.70;99.90;;;;;;5016298;28;20038;-79
2022/03/30 04:14:15;;;;;;;23.02;12.98;;;5.80;99.90;;;;;;5033187;28;20037;-79
2022/03/30 04:16:41;;;;;;;25.10;13.80;;;5.80;99.90;;;;;;5033175;28;20045;-79
2022/03/30 04:19:07;;;;;;;30.58;15.82;;;5.80;99.90;;;;;;5033112;28;20091;-79
2022/03/30 04:21:33;;;;;;;27.52;14.98;;;5.80;99.90;;;;;;5032702;28;20041;-80
2022/03/30 04:23:58;;;;;;;32.97;15.07;;;5.90;99.90;;;;;;5032772;28;20050;-80
2022/03/30 04:26:24;;;;;;;25.23;13.63;;;5.90;99.90;;;;;;5032728;28;20033;-79
2022/03/30 04:28:49;;;;;;;24.27;13.45;;;5.90;99.90;;;;;;5016129;28;20528;-79
2022/03/30 04:31:15;;;;;;;25.27;14.45;;;5.90;99.90;;;;;;5031097;28;20033;-80
2022/03/30 04:33:41;;;;;;;27.40;14.35;;;5.90;99.90;;;;;;5033219;28;20063;-80
2022/03/30 04:36:06;;;;;;;24.13;14.45;;;5.90;99.90;;;;;;5032753;28;20029;-79
2022/03/30 04:38:33;;;;;;;26.30;14.65;;;5.90;99.90;;;;;;5033113;28;20045;-80
2022/03/30 04:40:59;;;;;;;27.63;14.43;;;5.90;99.90;;;;;;5032509;28;20041;-79
2022/03/30 04:43:25;;;;;;;26.45;16.02;;;6.00;99.90;;;;;;5032755;28;20045;-80
2022/03/30 04:45:50;;;;;;;26.48;14.60;;;6.00;99.90;;;;;;5032171;28;20568;-80
2022/03/30 04:48:16;;;;;;;29.02;15.77;;;6.00;99.90;;;;;;5032201;28;20040;-80
2022/03/30 04:50:42;;;;;;;34.35;16.70;;;6.10;99.90;;;;;;5015742;28;20029;-80
2022/03/30 04:53:07;;;;;;;28.90;16.17;;;6.10;99.90;;;;;;5032276;28;20446;-79
2022/03/30 04:55:33;;;;;;;27.45;14.95;;;6.10;99.90;;;;;;5032669;28;20033;-79
2022/03/30 04:57:59;;;;;;;29.17;15.18;;;6.10;99.90;;;;;;5032612;28;20096;-80
2022/03/30 05:00:24;;;;;;;30.92;15.15;;;6.10;99.90;;;;;;5032147;28;20112;-79
2022/03/30 05:02:50;;;;;;;30.85;16.48;;;6.20;99.90;;;;;;5032463;28;20457;-80
2022/03/30 05:05:16;;;;;;;29.10;16.13;;;6.20;99.90;;;;;;5015472;28;20499;-79
2022/03/30 05:07:42;;;;;;;29.00;17.05;;;6.20;99.90;;;;;;5031955;28;20041;-80
2022/03/30 05:10:12;;;;;;;31.00;16.52;;;6.20;99.90;;;;;;5031477;28;20038;-79
2022/03/30 05:12:39;;;;;;;31.55;15.50;;;6.20;99.90;;;;;;5031991;28;20087;-80
2022/03/30 05:15:05;;;;;;;26.52;15.07;;;6.20;99.90;;;;;;5031941;28;20033;-80
2022/03/30 05:17:31;;;;;;;32.05;16.30;;;6.20;99.90;;;;;;5032049;28;20056;-80
2022/03/30 05:19:57;;;;;;;26.25;15.48;;;6.30;99.90;;;;;;5031420;28;20407;-79
2022/03/30 05:22:22;;;;;;;26.38;16.02;;;6.30;99.90;;;;;;5036127;28;20044;-79
2022/03/30 05:24:48;;;;;;;32.75;16.92;;;6.30;99.90;;;;;;5035248;28;20044;-80
2022/03/30 05:27:13;;;;;;;30.58;15.95;;;6.30;99.90;;;;;;5051478;28;20155;-79
2022/03/30 05:29:40;;;;;;;27.80;16.25;;;6.30;99.90;;;;;;5050966;28;20041;-80
2022/03/30 05:32:06;;;;;;;30.23;16.70;;;6.30;99.90;;;;;;5034301;28;20042;-80
2022/03/30 05:34:31;;;;;;;27.67;16.25;;;6.40;99.90;;;;;;5031839;28;20046;-79
2022/03/30 05:36:58;;;;;;;27.63;15.50;;;6.40;99.90;;;;;;5031740;28;20047;-80
2022/03/30 05:39:24;;;;;;;34.78;17.45;;;6.40;99.90;;;;;;5031742;28;20052;-80
2022/03/30 05:41:49;;;;;;;34.67;17.23;;;6.40;99.90;;;;;;5014775;28;20045;-79
2022/03/30 05:44:15;;;;;;;29.33;17.77;;;6.40;99.90;;;;;;5031088;28;20038;-80
2022/03/30 05:46:40;;;;;;;29.05;17.45;;;6.40;99.90;;;;;;5031223;28;20141;-80
2022/03/30 05:49:06;;;;;;;31.17;18.40;;;6.40;99.90;;;;;;5031541;28;20088;-80
2022/03/30 05:51:32;;;;;;;32.28;17.88;;;6.40;99.90;;;;;;5030591;28;20529;-80
2022/03/30 05:53:58;;;;;;;36.97;17.75;;;6.50;99.90;;;;;;5031564;28;20037;-79
2022/03/30 05:57:00;;;;;;;30.05;16.23;;;6.50;99.90;;;;;;5031333;28;20403;-80
2022/03/30 05:59:11;;;;;;;26.63;15.38;;;6.50;99.90;;;;;;5031484;28;20108;-79
2022/03/30 06:01:37;;;;;;;30.63;15.35;;;6.50;99.90;;;;;;5030887;28;20037;-79
2022/03/30 06:04:03;;;;;;;27.65;14.38;;;6.60;99.90;;;;;;5030812;28;20471;-79
2022/03/30 06:06:28;;;;;;;29.67;13.82;;;6.60;99.90;;;;;;5031138;28;20041;-79
2022/03/30 06:08:54;;;;;;;25.13;13.13;;;6.60;99.90;;;;;;5014405;28;20510;-79
2022/03/30 06:11:19;;;;;;;26.40;13.07;;;6.60;99.90;;;;;;5013703;28;20033;-79
2022/03/30 06:13:45;;;;;;;20.98;10.52;;;6.70;99.90;;;;;;5030968;28;20045;-79
2022/03/30 06:16:12;;;;;;;20.92;10.63;;;6.70;99.90;;;;;;5030817;28;20099;-79
2022/03/30 06:18:39;;;;;;;24.30;10.57;;;6.70;99.90;;;;;;5014031;28;20044;-79
2022/03/30 06:21:05;;;;;;;21.55;10.98;;;6.70;99.90;;;;;;5030877;28;20088;-79
2022/03/30 06:23:30;;;;;;;18.77;9.00;;;6.70;99.90;;;;;;5014309;28;20080;-80
2022/03/30 06:25:56;;;;;;;19.67;9.02;;;6.80;99.90;;;;;;5029350;28;20045;-80
2022/03/30 06:28:24;;;;;;;17.85;8.70;;;6.80;99.90;;;;;;5029918;28;20033;-79
2022/03/30 06:30:50;;;;;;;15.30;8.02;;;6.80;99.90;;;;;;5011480;28;20037;-80
2022/03/30 06:33:15;;;;;;;15.40;6.53;;;6.80;99.90;;;;;;5030514;28;20175;-80
2022/03/30 06:35:41;;;;;;;12.52;6.40;;;6.90;99.90;;;;;;5030657;28;20053;-80
2022/03/30 06:38:07;;;;;;;11.88;5.15;;;6.90;99.90;;;;;;5030759;28;20053;-80
2022/03/30 06:40:33;;;;;;;12.75;6.30;;;6.90;99.90;;;;;;5029957;28;20045;-79
2022/03/30 06:43:00;;;;;;;12.30;5.90;;;6.90;99.90;;;;;;5030473;28;20461;-80
2022/03/30 06:45:26;;;;;;;11.43;6.07;;;7.00;99.90;;;;;;5030155;28;20037;-80
2022/03/30 06:47:52;;;;;;;10.25;5.07;;;7.00;99.90;;;;;;5013557;28;20045;-80
2022/03/30 06:50:19;;;;;;;8.93;4.25;;;7.10;99.90;;;;;;5029492;28;20033;-80
2022/03/30 06:52:46;;;;;;;9.23;4.20;;;7.10;99.90;;;;;;5030234;28;20406;-80
2022/03/30 06:55:14;;;;;;;8.90;4.05;;;7.10;99.90;;;;;;5030257;28;20042;-79
2022/03/30 06:57:40;;;;;;;7.40;3.10;;;7.20;99.90;;;;;;5030255;28;20042;-80
2022/03/30 07:00:07;;;;;;;6.50;2.65;;;7.30;99.90;;;;;;5029912;28;20132;-80
2022/03/30 07:02:32;;;;;;;7.18;2.40;;;7.30;99.90;;;;;;5031482;28;20120;-80
2022/03/30 07:04:58;;;;;;;6.53;2.60;;;7.30;99.90;;;;;;5030059;28;20140;-80
2022/03/30 07:10:17;;;;;;;5.20;2.00;;;7.40;99.90;;;;;;5029426;28;20132;-80
2022/03/30 07:12:48;;;;;;;6.70;2.00;;;7.50;99.90;;;;;;5013703;28;20084;-80
2022/03/30 07:15:16;;;;;;;5.82;2.25;;;7.50;99.90;;;;;;5030543;28;20037;-80
2022/03/30 07:17:53;;;;;;;3.35;1.20;;;7.60;99.90;;;;;;5029975;28;20561;-80
2022/03/30 07:20:20;;;;;;;3.80;1.15;;;7.70;99.90;;;;;;5012973;28;20045;-80
2022/03/30 07:22:47;;;;;;;2.28;0.90;;;7.70;99.90;;;;;;5030306;28;20487;-80
2022/03/30 07:25:14;;;;;;;2.53;1.00;;;7.70;99.90;;;;;;5030021;28;20410;-80
2022/03/30 07:27:41;;;;;;;1.58;0.80;;;7.80;99.90;;;;;;5029958;28;20041;-80
2022/03/30 07:30:08;;;;;;;2.45;1.02;;;7.80;99.90;;;;;;5029001;28;20037;-80
2022/03/30 07:32:39;;;;;;;3.50;1.00;;;7.80;99.90;;;;;;5032155;28;20076;-80
2022/03/30 07:35:06;;;;;;;3.03;0.95;;;7.90;99.90;;;;;;5034188;28;20095;-80
2022/03/30 07:37:31;;;;;;;2.20;1.00;;;7.90;99.90;;;;;;5033993;28;20041;-79
2022/03/30 07:39:57;;;;;;;2.22;0.93;;;7.90;99.90;;;;;;5033679;28;20465;-80
2022/03/30 07:42:22;;;;;;;4.45;1.30;;;7.90;99.90;;;;;;5031825;28;20033;-79
2022/03/30 07:44:48;;;;;;;2.47;1.00;;;8.00;99.90;;;;;;5033312;28;20472;-80
2022/03/30 07:47:14;;;;;;;2.67;0.95;;;8.00;99.90;;;;;;5032526;28;20099;-80
2022/03/30 07:49:40;;;;;;;1.88;1.10;;;8.10;99.90;;;;;;5032937;28;20033;-79
2022/03/30 07:52:05;;;;;;;2.13;1.20;;;8.10;99.90;;;;;;5032687;28;20223;-79
2022/03/30 07:54:31;;;;;;;3.53;1.20;;;8.20;99.90;;;;;;5033107;28;20045;-80
2022/03/30 07:56:57;;;;;;;2.50;1.25;;;8.20;99.90;;;;;;5033709;28;20041;-80
2022/03/30 07:59:23;;;;;;;3.33;1.25;;;8.20;99.90;;;;;;5033167;28;20033;-80
2022/03/30 08:01:48;;;;;;;1.98;1.20;;;8.30;99.90;;;;;;5032917;28;20053;-80
2022/03/30 08:04:14;;;;;;;2.20;1.13;;;8.30;99.90;;;;;;5032943;28;20124;-80
2022/03/30 08:06:40;;;;;;;3.13;1.38;;;8.40;99.90;;;;;;5032814;28;20042;-80
2022/03/30 08:09:06;;;;;;;4.97;1.38;;;8.40;99.90;;;;;;5016568;28;20095;-79
2022/03/30 08:11:31;;;;;;;1.65;0.98;;;8.50;99.90;;;;;;5032332;28;20033;-80
2022/03/30 08:13:58;;;;;;;3.42;1.50;;;8.50;99.90;;;;;;5033018;28;20044;-80
2022/03/30 08:16:23;;;;;;;5.07;1.60;;;8.50;99.90;;;;;;5032693;28;20043;-79
2022/03/30 08:18:49;;;;;;;3.40;1.30;;;8.60;99.90;;;;;;5032835;28;20128;-80
2022/03/30 08:24:12;;;;;;;3.63;1.38;;;8.60;99.90;;;;;;4989659;28;20170;-80
2022/03/30 08:26:39;;;;;;;4.30;1.63;;;8.50;99.90;;;;;;5014187;28;20676;-80
2022/03/30 08:29:08;;;;;;;4.47;1.63;;;8.50;99.90;;;;;;5031213;28;20430;-80
2022/03/30 08:31:34;;;;;;;6.28;1.90;;;8.60;99.90;;;;;;5031265;28;20038;-80
2022/03/30 08:34:00;;;;;;;5.50;1.92;;;8.60;99.90;;;;;;5031716;28;20088;-80
2022/03/30 08:36:29;;;;;;;6.70;2.13;;;8.60;99.90;;;;;;5032731;28;20037;-80
2022/03/30 08:38:59;;;;;;;5.38;1.70;;;8.70;99.90;;;;;;5032930;28;20515;-80
2022/03/30 08:41:25;;;;;;;5.68;1.60;;;8.70;99.90;;;;;;5032138;28;20041;-79
2022/03/30 08:43:52;;;;;;;4.25;1.70;;;8.70;99.90;;;;;;5033831;28;20402;-77
2022/03/30 08:46:18;;;;;;;5.60;1.83;;;8.70;99.90;;;;;;5018384;28;20076;-79
2022/03/30 08:48:44;;;;;;;5.43;1.90;;;8.70;99.90;;;;;;5032610;28;20073;-80
2022/03/30 08:51:10;;;;;;;3.28;1.30;;;8.80;99.90;;;;;;5031851;28;20044;-79
2022/03/30 08:53:37;;;;;;;6.22;1.63;;;8.80;99.90;;;;;;5032675;28;20043;-80
2022/03/30 08:56:03;;;;;;;3.95;1.30;;;8.90;99.90;;;;;;5032639;28;20044;-79
2022/03/30 08:58:29;;;;;;;4.20;1.27;;;8.90;99.90;;;;;;5032703;28;20064;-79
2022/03/30 09:01:09;;;;;;;5.22;1.15;;;8.90;99.90;;;;;;5032455;28;20384;-80
2022/03/30 09:03:35;;;;;;;4.95;1.42;;;9.00;99.90;;;;;;5016469;28;20041;-80
2022/03/30 09:06:01;;;;;;;5.65;1.90;;;8.90;99.90;;;;;;5032501;28;20049;-80
2022/03/30 09:08:27;;;;;;;4.65;1.50;;;8.90;99.90;;;;;;5032085;28;20042;-80
2022/03/30 09:10:56;;;;;;;4.13;1.20;;;9.00;99.90;;;;;;5030800;28;20046;-80
2022/03/30 09:13:22;;;;;;;4.53;1.20;;;9.00;99.90;;;;;;5031881;28;20040;-80
2022/03/30 09:15:50;;;;;;;5.72;1.40;;;9.00;99.90;;;;;;5032313;28;20033;-80
2022/03/30 09:18:17;;;;;;;8.65;1.60;;;9.10;99.90;;;;;;5031754;28;20096;-80
2022/03/30 09:20:46;;;;;;;5.05;1.50;;;9.20;99.90;;;;;;5031699;28;20060;-80
2022/03/30 09:23:13;;;;;;;6.80;1.30;;;9.30;99.90;;;;;;5031111;28;20170;-80
2022/03/30 09:25:43;;;;;;;5.68;1.38;;;9.40;99.90;;;;;;5031967;28;20415;-80
2022/03/30 09:28:10;;;;;;;5.55;1.35;;;9.40;99.90;;;;;;5031548;28;20059;-80
2022/03/30 09:30:36;;;;;;;5.63;1.48;;;9.40;99.90;;;;;;5029967;28;20045;-80
2022/03/30 09:33:02;;;;;;;5.00;1.30;;;9.50;99.60;;;;;;5031267;28;20069;-80
2022/03/30 09:35:41;;;;;;;5.78;1.50;;;9.60;99.70;;;;;;5015211;28;20038;-80
2022/03/30 09:38:12;;;;;;;5.55;1.52;;;9.70;99.40;;;;;;5031747;28;20045;-80
2022/03/30 09:40:56;;;;;;;4.25;1.13;;;9.70;98.80;;;;;;5015013;28;20445;-80
2022/03/30 09:43:27;;;;;;;6.78;1.30;;;9.70;98.20;;;;;;5031800;28;20057;-80
2022/03/30 09:46:02;;;;;;;5.28;1.42;;;9.70;98.00;;;;;;5031174;28;20083;-80
2022/03/30 09:48:30;;;;;;;5.30;1.20;;;9.70;97.60;;;;;;5014776;28;20052;-80
2022/03/30 09:50:57;;;;;;;4.05;1.10;;;9.70;97.70;;;;;;5030626;28;20038;-80
2022/03/30 09:53:28;;;;;;;6.43;1.55;;;9.70;97.40;;;;;;5030045;28;20040;-80
2022/03/30 09:56:00;;;;;;;4.53;1.15;;;9.80;97.20;;;;;;5031727;28;20045;-79
2022/03/30 09:58:28;;;;;;;3.65;0.93;;;9.90;97.00;;;;;;5031134;28;20462;-80
2022/03/30 10:01:14;;;;;;;4.43;1.20;;;10.00;96.60;;;;;;5031309;28;20403;-79
2022/03/30 10:03:46;;;;;;;5.05;1.20;;;10.20;96.30;;;;;;5014836;28;20091;-80
2022/03/30 10:06:15;;;;;;;3.78;1.10;;;10.20;95.70;;;;;;5029116;28;20056;-80
2022/03/30 10:08:42;;;;;;;4.60;1.10;;;10.30;95.40;;;;;;5030079;28;20055;-80
2022/03/30 10:11:15;;;;;;;4.45;1.40;;;10.40;95.10;;;;;;5013510;28;20045;-80
2022/03/30 10:13:41;;;;;;;;;;;10.50;94.70;;;;;;5014326;28;20073;-80
2022/03/30 10:16:08;;;;;;;7.00;1.40;;;10.60;95.10;;;;;;5031155;28;19979;-80
2022/03/30 10:18:37;;;;;;;7.10;1.67;;;10.70;94.70;;;;;;5030878;28;20049;-81
2022/03/30 10:21:26;;;;;;;5.47;1.20;;;10.80;93.80;;;;;;5030474;28;20515;-80
2022/03/30 10:24:10;;;;;;;7.45;1.73;;;10.80;92.80;;;;;;5014515;28;20084;-80
2022/03/30 10:26:55;;;;;;;6.75;1.55;;;11.00;92.90;;;;;;5030544;28;20045;-80
2022/03/30 10:29:22;;;;;;;6.93;1.52;;;11.00;92.70;;;;;;5014015;28;20048;-81
2022/03/30 10:32:20;;;;;;;6.85;1.60;;;11.10;92.00;;;;;;5028326;28;20129;-80
2022/03/30 10:34:57;;;;;;;6.82;1.73;;;11.20;92.40;;;;;;5029156;28;20109;-80
2022/03/30 10:37:34;;;;;;;6.30;1.40;;;11.30;90.70;;;;;;5030536;28;20529;-81
2022/03/30 10:40:21;;;;;;;6.28;1.50;;;11.30;89.50;;;;;;5030182;28;20041;-80
2022/03/30 10:42:47;;;;;;;7.68;1.75;;;11.20;88.70;;;;;;5030481;28;20052;-80
2022/03/30 10:45:30;;;;;;;6.93;1.55;;;11.20;90.10;;;;;;5030670;28;20045;-80
2022/03/30 10:48:21;;;;;;;6.70;1.40;;;11.20;90.50;;;;;;5010417;28;20029;-81
2022/03/30 10:51:10;;;;;;;8.05;1.42;;;11.30;90.20;;;;;;5029486;28;20041;-80
2022/03/30 10:53:38;;;;;;;5.95;1.50;;;11.20;89.00;;;;;;5003884;28;20077;-81
2022/03/30 10:56:17;;;;;;;7.78;1.55;;;11.20;89.90;;;;;;5030545;28;20056;-80
2022/03/30 10:59:00;;;;;;;7.18;1.48;;;11.20;90.10;;;;;;5030166;28;20046;-81
2022/03/30 11:01:34;;;;;;;6.47;1.50;;;11.30;89.70;;;;;;5029876;28;20490;-80
2022/03/30 11:04:18;;;;;;;5.25;1.50;;;11.30;89.90;;;;;;5030219;28;20135;-80
2022/03/30 11:07:13;;;;;;;7.53;1.35;;;11.40;89.20;;;;;;5028723;28;20049;-80
2022/03/30 11:09:40;;;;;;;10.18;1.92;;;11.40;89.00;;;;;;5012947;28;20080;-80
2022/03/30 11:12:13;;;;;;;6.07;1.30;;;11.40;90.20;;;;;;5029243;28;20037;-81
2022/03/30 11:14:59;;;;;;;3.60;1.20;;;11.50;89.90;;;;;;5013393;28;20121;-80
2022/03/30 11:17:40;;;;;;;5.15;1.30;;;11.60;89.70;;;;;;5029934;28;20060;-80
2022/03/30 11:20:08;;;;;;;5.07;1.40;;;11.80;87.80;;;;;;5029718;28;20041;-81
2022/03/30 11:22:36;;;;;;;5.60;1.40;;;11.80;86.40;;;;;;5029710;28;20045;-80
2022/03/30 11:25:23;;;;;;;6.53;1.33;;;11.80;83.70;;;;;;5030113;28;20461;-81
2022/03/30 11:27:58;;;;;;;4.68;1.20;;;11.80;82.00;;;;;;5029417;28;20407;-81
2022/03/30 11:30:28;;;;;;;6.57;1.45;;;11.80;81.60;;;;;;5029185;28;20407;-81
2022/03/30 11:33:17;;;;;;;6.65;1.80;;;11.80;83.30;;;;;;5028933;28;20099;-81
2022/03/30 11:35:43;;;;;;;6.18;1.50;;;11.90;82.90;;;;;;5029862;28;20131;-80
2022/03/30 11:38:23;;;;;;;3.95;1.13;;;12.00;82.40;;;;;;5029787;28;20052;-81
2022/03/30 11:40:52;;;;;;;5.93;1.42;;;12.00;81.50;;;;;;5029428;28;20570;-82
2022/03/30 11:43:19;;;;;;;5.60;1.42;;;12.00;80.30;;;;;;5029814;28;20046;-81
2022/03/30 11:45:46;;;;;;;4.88;1.45;;;11.90;78.90;;;;;;5013203;28;20038;-81
2022/03/30 11:48:13;;;;;;;5.47;1.42;;;11.90;79.10;;;;;;5029250;28;20041;-81
2022/03/30 11:50:44;;;;;;;7.63;1.65;;;11.80;79.50;;;;;;5028931;28;20048;-80
2022/03/30 11:53:18;;;;;;;6.13;1.40;;;11.70;79.20;;;;;;5027707;28;20077;-79
2022/03/30 11:55:49;;;;;;;7.82;1.63;;;11.60;79.90;;;;;;5029583;28;20095;-80
2022/03/30 11:58:34;;;;;;;6.93;1.40;;;11.60;79.90;;;;;;5013162;28;20048;-80
2022/03/30 12:01:05;;;;;;;4.45;1.17;;;11.60;80.30;;;;;;5029632;28;20414;-80
2022/03/30 12:03:31;;;;;;;5.45;1.50;;;11.50;80.70;;;;;;5029583;28;20537;-80
2022/03/30 12:05:59;;;;;;;4.40;1.10;;;11.40;80.50;;;;;;5027828;28;20038;-80
2022/03/30 12:08:26;;;;;;;5.13;1.25;;;11.30;79.40;;;;;;5028868;28;20078;-80
2022/03/30 12:10:58;;;;;;;5.55;1.25;;;11.30;80.10;;;;;;5029088;28;20043;-80
2022/03/30 12:13:24;;;;;;;4.75;1.23;;;11.20;80.50;;;;;;5028899;28;20037;-80
2022/03/30 12:16:20;;;;;;;6.40;1.40;;;11.30;80.90;;;;;;5029066;28;20047;-80
2022/03/30 12:18:51;;;;;;;5.47;1.40;;;11.30;80.30;;;;;;4960013;28;20058;-80
2022/03/30 12:21:25;;;;;;;2.42;1.05;;;11.30;79.20;;;;;;4959715;28;20101;-80
2022/03/30 12:24:12;;;;;;;3.03;1.10;;;11.30;78.60;;;;;;4976218;28;20088;-79
2022/03/30 12:26:39;;;;;;;2.80;1.15;;;11.30;78.70;;;;;;4975550;28;20100;-79
2022/03/30 12:29:14;;;;;;;3.72;0.98;;;11.50;80.40;;;;;;4975427;28;20181;-79
2022/03/30 12:32:02;;;;;;;3.30;0.90;;;11.50;80.70;;;;;;4974435;28;20042;-79
2022/03/30 12:34:33;;;;;;;4.03;1.00;;;11.60;80.70;;;;;;4975816;28;20042;-80
2022/03/30 12:37:05;;;;;;;4.05;1.10;;;11.70;79.70;;;;;;4992229;28;20440;-80
2022/03/30 12:39:40;;;;;;;5.65;1.30;;;11.80;78.00;;;;;;4975856;28;20128;-80
2022/03/30 12:42:14;;;;;;;4.10;0.95;;;11.80;75.30;;;;;;4959533;28;20056;-80
2022/03/30 12:44:56;;;;;;;4.60;1.10;;;11.90;74.10;;;;;;4960170;28;20520;-80
2022/03/30 12:47:31;;;;;;;2.70;0.93;;;12.00;72.50;;;;;;4975417;28;20085;-80
2022/03/30 12:49:59;;;;;;;3.75;1.20;;;12.10;72.00;;;;;;4959074;28;20038;-80
2022/03/30 12:52:34;;;;;;;4.65;1.17;;;12.20;70.70;;;;;;4975151;28;20043;-80
2022/03/30 12:55:23;;;;;;;4.22;1.08;;;12.30;69.50;;;;;;4998479;28;20057;-79
2022/03/30 12:57:51;;;;;;;3.58;1.00;;;12.40;68.50;;;;;;5032335;28;20399;-80
2022/03/30 13:00:22;;;;;;;9.88;2.92;;;12.50;69.50;;;;;;5032116;28;20052;-80